DAL53 LSZH-KJFK
Flight info
| Callsign | DAL53 |
|---|---|
| Flight time | N/A |
| Altitude | 30000 |
| Route | VEBIT T51 LASUN DCT RLP UL613 SOVAT L613 SANDY UN601 LESTA UP6 RODOL UL28 MCT/N0459F320 UL28 PENIL M144 BAGSO DCT DOGAL/M080F330 NATD NEEKO/N0459F340 DCT PIKNA DCT HITOR DCT TOPPS DCT ENE PARCH3 |
| Aircraft | B764/H-SDE3FGHIM3RWXY/LB1 |
Departure
| Time | N/A |
|---|---|
| Airport | Zürich Airport (LSZH) |
Arrival
| Time | 2026-05-06 02:05 |
|---|---|
| Airport | John F. Kennedy International Airport (KJFK) |
| Time | Latitude | Longitude | Altitude | Speed | Heading |
|---|---|---|---|---|---|
| 2026-05-06 01:52 | 40.74617 | -73.04844 | 4971 ft | 195 kts | 254° |
| 2026-05-06 01:52 | 40.74277 | -73.06551 | 4971 ft | 195 kts | 254° |
| 2026-05-06 01:52 | 40.73928 | -73.08298 | 4971 ft | 195 kts | 254° |
| 2026-05-06 01:52 | 40.73583 | -73.10020 | 4971 ft | 195 kts | 254° |
| 2026-05-06 01:53 | 40.73241 | -73.11729 | 4970 ft | 195 kts | 254° |
| 2026-05-06 01:53 | 40.72896 | -73.13456 | 4969 ft | 195 kts | 254° |
| 2026-05-06 01:53 | 40.72549 | -73.15183 | 4965 ft | 195 kts | 254° |
| 2026-05-06 01:53 | 40.72202 | -73.16913 | 4962 ft | 195 kts | 254° |
| 2026-05-06 01:54 | 40.71855 | -73.18643 | 4960 ft | 195 kts | 254° |
| 2026-05-06 01:54 | 40.71506 | -73.20383 | 4957 ft | 196 kts | 254° |
| 2026-05-06 01:54 | 40.71158 | -73.22115 | 4955 ft | 196 kts | 254° |
| 2026-05-06 01:54 | 40.70810 | -73.23843 | 4954 ft | 196 kts | 254° |
| 2026-05-06 01:55 | 40.70481 | -73.25481 | 4953 ft | 196 kts | 254° |
| 2026-05-06 01:55 | 40.70132 | -73.27215 | 4952 ft | 196 kts | 254° |
| 2026-05-06 01:55 | 40.69787 | -73.28954 | 4949 ft | 196 kts | 255° |
| 2026-05-06 01:55 | 40.69821 | -73.30742 | 4946 ft | 198 kts | 277° |
| 2026-05-06 01:56 | 40.70135 | -73.32518 | 4967 ft | 200 kts | 280° |
| 2026-05-06 01:56 | 40.70479 | -73.34293 | 4957 ft | 200 kts | 281° |
| 2026-05-06 01:56 | 40.70825 | -73.36065 | 4954 ft | 200 kts | 281° |
| 2026-05-06 01:56 | 40.71171 | -73.37836 | 4952 ft | 199 kts | 281° |
| 2026-05-06 01:57 | 40.71515 | -73.39594 | 4950 ft | 198 kts | 281° |
| 2026-05-06 01:57 | 40.71861 | -73.41358 | 4803 ft | 199 kts | 279° |
| 2026-05-06 01:57 | 40.72208 | -73.43124 | 4437 ft | 198 kts | 280° |
| 2026-05-06 01:57 | 40.72545 | -73.44869 | 4064 ft | 197 kts | 280° |
| 2026-05-06 01:58 | 40.72644 | -73.45375 | 3956 ft | 197 kts | 280° |
| 2026-05-06 01:58 | 40.72978 | -73.47094 | 3586 ft | 196 kts | 279° |
| 2026-05-06 01:58 | 40.73322 | -73.48860 | 3205 ft | 196 kts | 279° |
| 2026-05-06 01:58 | 40.73379 | -73.49155 | 3141 ft | 196 kts | 279° |
| 2026-05-06 01:59 | 40.73645 | -73.50528 | 2843 ft | 195 kts | 279° |
| 2026-05-06 01:59 | 40.73962 | -73.52252 | 2456 ft | 192 kts | 276° |
| 2026-05-06 01:59 | 40.73766 | -73.53922 | 2113 ft | 181 kts | 245° |
| 2026-05-06 02:00 | 40.73178 | -73.55337 | 2017 ft | 172 kts | 240° |
| 2026-05-06 02:00 | 40.72930 | -73.56856 | 1935 ft | 174 kts | 269° |
| 2026-05-06 02:00 | 40.73087 | -73.58454 | 1981 ft | 176 kts | 275° |
| 2026-05-06 02:00 | 40.73277 | -73.60050 | 1951 ft | 178 kts | 274° |
| 2026-05-06 02:01 | 40.73498 | -73.61672 | 1968 ft | 180 kts | 275° |
| 2026-05-06 02:01 | 40.73493 | -73.63302 | 1964 ft | 176 kts | 256° |
| 2026-05-06 02:01 | 40.73264 | -73.64878 | 2182 ft | 173 kts | 255° |
| 2026-05-06 02:01 | 40.72971 | -73.66340 | 2229 ft | 161 kts | 249° |
| 2026-05-06 02:02 | 40.72469 | -73.67649 | 1885 ft | 162 kts | 238° |
| 2026-05-06 02:02 | 40.71845 | -73.68817 | 1784 ft | 149 kts | 233° |
| 2026-05-06 02:02 | 40.71183 | -73.69878 | 1524 ft | 149 kts | 231° |
| 2026-05-06 02:02 | 40.70507 | -73.70891 | 1519 ft | 148 kts | 232° |
| 2026-05-06 02:03 | 40.69822 | -73.71978 | 1309 ft | 163 kts | 234° |
| 2026-05-06 02:03 | 40.68968 | -73.73093 | 835 ft | 182 kts | 218° |
| 2026-05-06 02:03 | 40.68020 | -73.74144 | 763 ft | 175 kts | 212° |
| 2026-05-06 02:03 | 40.67036 | -73.74985 | 500 ft | 164 kts | 205° |
| 2026-05-06 02:04 | 40.66047 | -73.75697 | 189 ft | 164 kts | 204° |
| 2026-05-06 02:04 | 40.65071 | -73.76357 | 71 ft | 148 kts | 205° |
| 2026-05-06 02:04 | 40.64243 | -73.76959 | 30 ft | 124 kts | 208° |
| 2026-05-06 02:04 | 40.63638 | -73.77413 | 28 ft | 78 kts | 209° |
| 2026-05-06 02:05 | 40.63275 | -73.77706 | 28 ft | 51 kts | 207° |
| 2026-05-06 02:05 | 40.63109 | -73.77833 | 28 ft | 24 kts | 216° |
| 2026-05-06 02:05 | 40.63111 | -73.77928 | 28 ft | 11 kts | 326° |
| 2026-05-06 02:05 | 40.63178 | -73.77992 | 28 ft | 16 kts | 348° |
| 2026-05-06 02:06 | 40.63314 | -73.77975 | 28 ft | 21 kts | 11° |
| 2026-05-06 02:06 | 40.63433 | -73.77860 | 28 ft | 25 kts | 28° |
| 2026-05-06 02:06 | 40.63571 | -73.77854 | 28 ft | 21 kts | 321° |
| 2026-05-06 02:06 | 40.63723 | -73.77897 | 28 ft | 29 kts | 352° |
| 2026-05-06 02:07 | 40.63952 | -73.77949 | 28 ft | 25 kts | 348° |
| 2026-05-06 02:07 | 40.64023 | -73.77985 | 28 ft | 9 kts | 302° |
| 2026-05-06 02:07 | 40.64021 | -73.78052 | 28 ft | 6 kts | 250° |
| 2026-05-06 02:07 | 40.64015 | -73.78073 | 28 ft | 0 kts | 249° |
| 2026-05-06 02:08 | 40.64014 | -73.78073 | 28 ft | 0 kts | 249° |